createdAt,value
2019-05-29T00:02:16.600Z,5.20
2019-05-29T00:04:47.570Z,5.00
2019-05-29T00:07:18.518Z,5.83
2019-05-29T00:09:49.805Z,5.07
2019-05-29T00:12:21.334Z,5.95
2019-05-29T00:14:51.961Z,6.20
2019-05-29T00:17:23.015Z,5.40
2019-05-29T00:19:53.504Z,6.40
2019-05-29T00:22:24.302Z,5.70
2019-05-29T00:24:54.981Z,5.83
2019-05-29T00:27:25.945Z,6.47
2019-05-29T00:29:56.667Z,5.67
2019-05-29T00:32:27.480Z,5.47
2019-05-29T00:34:58.318Z,5.90
2019-05-29T00:37:29.190Z,5.77
2019-05-29T00:40:00.013Z,6.30
2019-05-29T00:42:31.013Z,6.17
2019-05-29T00:45:02.190Z,6.93
2019-05-29T00:47:33.156Z,6.03
2019-05-29T00:50:03.861Z,7.33
2019-05-29T00:52:34.752Z,7.10
2019-05-29T00:55:05.893Z,7.43
2019-05-29T00:57:36.987Z,7.37
2019-05-29T01:00:09.060Z,7.27
2019-05-29T01:02:40.467Z,8.85
2019-05-29T01:05:12.011Z,7.43
2019-05-29T01:07:43.237Z,7.53
2019-05-29T01:13:11.064Z,7.57
2019-05-29T01:15:41.846Z,7.73
2019-05-29T01:18:13.779Z,7.70
2019-05-29T01:20:44.571Z,8.60
2019-05-29T01:23:16.528Z,7.47
2019-05-29T01:25:47.512Z,8.20
2019-05-29T01:28:18.977Z,8.13
2019-05-29T01:30:51.530Z,8.10
2019-05-29T01:33:24.669Z,7.83
2019-05-29T01:35:55.545Z,8.00
2019-05-29T01:38:27.558Z,7.57
2019-05-29T01:40:58.211Z,8.13
2019-05-29T01:43:28.995Z,8.30
2019-05-29T01:45:59.857Z,8.10
2019-05-29T01:48:30.837Z,8.50
2019-05-29T01:51:01.302Z,9.80
2019-05-29T01:53:32.127Z,9.03
2019-05-29T01:56:02.981Z,9.40
2019-05-29T01:58:33.852Z,9.30
2019-05-29T02:01:04.793Z,8.83
2019-05-29T02:03:35.874Z,8.87
2019-05-29T02:06:06.671Z,8.10
2019-05-29T02:08:37.419Z,8.83
2019-05-29T02:11:08.218Z,9.67
2019-05-29T02:13:39.006Z,9.40
2019-05-29T02:16:09.602Z,8.90
2019-05-29T02:18:40.166Z,8.93
2019-05-29T02:21:10.996Z,9.00
2019-05-29T02:23:41.946Z,8.63
2019-05-29T02:26:12.838Z,9.23
2019-05-29T02:28:44.577Z,7.87
2019-05-29T02:31:17.490Z,7.90
2019-05-29T02:33:48.771Z,7.67
2019-05-29T02:36:20.411Z,6.97
2019-05-29T02:38:52.177Z,7.30
2019-05-29T02:41:25.807Z,7.28
2019-05-29T02:43:56.547Z,6.70
2019-05-29T02:46:28.552Z,5.87
2019-05-29T02:49:00.352Z,6.07
2019-05-29T02:51:31.389Z,5.33
2019-05-29T02:54:02.365Z,4.77
2019-05-29T02:56:33.330Z,4.90
2019-05-29T02:59:04.070Z,5.10
2019-05-29T03:01:34.960Z,5.07
2019-05-29T03:04:06.071Z,5.10
2019-05-29T03:06:36.997Z,4.30
2019-05-29T03:09:07.886Z,4.83
2019-05-29T03:11:38.651Z,4.80
2019-05-29T03:14:09.548Z,4.87
2019-05-29T03:16:40.899Z,4.47
2019-05-29T03:19:11.653Z,4.60
2019-05-29T03:21:42.523Z,5.30
2019-05-29T03:24:13.525Z,5.57
2019-05-29T03:26:44.276Z,5.40
2019-05-29T03:29:14.979Z,5.57
2019-05-29T03:31:47.958Z,6.30
2019-05-29T03:34:18.609Z,5.53
2019-05-29T03:36:49.402Z,5.83
2019-05-29T03:39:20.369Z,5.70
2019-05-29T03:41:51.303Z,5.50
2019-05-29T03:44:22.333Z,5.93
2019-05-29T03:46:53.089Z,5.77
2019-05-29T03:49:23.949Z,5.90
2019-05-29T03:51:55.797Z,6.50
2019-05-29T03:54:28.670Z,6.33
2019-05-29T03:56:59.459Z,5.77
2019-05-29T03:59:32.544Z,6.03
2019-05-29T04:02:03.735Z,5.77
2019-05-29T04:04:36.229Z,7.08
2019-05-29T04:07:07.226Z,7.23
2019-05-29T04:09:38.402Z,6.27
2019-05-29T04:12:09.105Z,6.53
2019-05-29T04:14:40.917Z,6.30
2019-05-29T04:17:13.739Z,6.33
2019-05-29T04:19:44.879Z,6.27
2019-05-29T04:22:18.792Z,6.30
2019-05-29T04:24:53.795Z,6.33
2019-05-29T04:27:28.014Z,6.10
2019-05-29T04:30:00.849Z,5.70
2019-05-29T04:32:32.255Z,5.20
2019-05-29T04:35:02.927Z,5.27
2019-05-29T04:37:34.405Z,4.37
2019-05-29T04:40:05.737Z,4.33
2019-05-29T04:42:37.573Z,25.23
2019-05-29T04:45:08.997Z,5.23
2019-05-29T04:47:39.810Z,4.90
2019-05-29T04:50:11.867Z,4.27
2019-05-29T04:52:42.709Z,4.10
2019-05-29T04:55:14.087Z,4.78
2019-05-29T04:57:45.057Z,4.97
2019-05-29T05:00:15.922Z,5.10
2019-05-29T05:02:46.545Z,5.17
2019-05-29T05:05:19.471Z,4.93
2019-05-29T05:07:49.793Z,4.77
2019-05-29T05:10:35.961Z,4.60
2019-05-29T05:13:08.015Z,5.20
2019-05-29T05:15:40.131Z,4.10
2019-05-29T05:18:11.237Z,4.40
2019-05-29T05:20:41.966Z,4.10
2019-05-29T05:23:12.888Z,4.20
2019-05-29T05:25:43.766Z,3.77
2019-05-29T05:28:14.810Z,3.77
2019-05-29T05:30:45.667Z,4.27
2019-05-29T05:33:16.506Z,3.53
2019-05-29T05:35:47.856Z,16.13
2019-05-29T05:38:19.778Z,11.67
2019-05-29T05:40:50.817Z,4.57
2019-05-29T05:43:24.446Z,4.37
2019-05-29T05:45:53.807Z,4.55
2019-05-29T05:48:24.757Z,5.20
2019-05-29T05:50:55.800Z,4.20
2019-05-29T05:53:26.582Z,4.80
2019-05-29T05:55:57.411Z,4.20
2019-05-29T05:58:28.026Z,4.40
2019-05-29T06:00:58.473Z,4.40
2019-05-29T06:03:29.002Z,4.50
2019-05-29T06:05:59.435Z,4.37
2019-05-29T06:08:29.956Z,4.40
2019-05-29T06:11:00.433Z,4.40
2019-05-29T06:13:30.793Z,4.23
2019-05-29T06:16:01.221Z,4.37
2019-05-29T06:18:32.391Z,4.83
2019-05-29T06:21:03.004Z,3.87
2019-05-29T06:23:34.682Z,4.03
2019-05-29T06:26:05.290Z,4.07
2019-05-29T06:28:37.003Z,4.07
2019-05-29T06:31:07.971Z,4.53
2019-05-29T06:33:39.475Z,4.43
2019-05-29T06:36:10.101Z,5.10
2019-05-29T06:38:42.069Z,4.70
2019-05-29T06:41:12.954Z,4.70
2019-05-29T06:43:44.442Z,4.17
2019-05-29T06:46:15.077Z,4.13
2019-05-29T06:48:58.823Z,4.57
2019-05-29T06:51:17.552Z,4.87
2019-05-29T06:53:48.377Z,4.33
2019-05-29T06:56:19.004Z,4.27
2019-05-29T06:58:49.588Z,4.40
2019-05-29T07:01:20.031Z,4.93
2019-05-29T07:03:50.578Z,4.60
2019-05-29T07:06:21.108Z,5.20
2019-05-29T07:08:51.609Z,4.93
2019-05-29T07:11:22.096Z,4.67
2019-05-29T07:13:52.551Z,4.57
2019-05-29T07:16:23.031Z,4.60
2019-05-29T07:19:24.074Z,5.50
2019-05-29T07:21:25.801Z,4.70
2019-05-29T07:23:56.188Z,4.37
2019-05-29T07:26:26.677Z,4.60
2019-05-29T07:29:07.380Z,4.92
2019-05-29T07:31:29.624Z,4.30
2019-05-29T07:34:00.091Z,4.57
2019-05-29T07:36:30.501Z,3.97
2019-05-29T07:39:03.641Z,4.80
2019-05-29T07:41:33.295Z,4.13
2019-05-29T07:44:03.776Z,4.70
2019-05-29T07:46:34.275Z,4.50
2019-05-29T07:49:04.940Z,4.50
2019-05-29T07:51:36.659Z,4.47
2019-05-29T07:54:07.132Z,4.60
2019-05-29T07:56:38.339Z,4.10
2019-05-29T07:59:08.996Z,4.40
2019-05-29T08:01:40.647Z,4.63
2019-05-29T08:04:11.223Z,4.20
2019-05-29T08:06:49.207Z,4.67
2019-05-29T08:09:13.830Z,4.47
2019-05-29T08:11:45.552Z,4.40
2019-05-29T08:14:16.076Z,4.40
2019-05-29T08:16:48.075Z,4.17
2019-05-29T08:19:19.210Z,4.03
2019-05-29T08:21:50.662Z,4.27
2019-05-29T08:24:24.735Z,4.27
2019-05-29T08:26:53.871Z,3.40
2019-05-29T08:29:24.691Z,4.30
2019-05-29T08:31:55.422Z,4.50
2019-05-29T08:34:26.230Z,4.10
2019-05-29T08:37:06.188Z,4.40
2019-05-29T08:39:36.233Z,3.70
2019-05-29T08:42:21.815Z,4.13
2019-05-29T08:44:35.038Z,3.30
2019-05-29T08:47:10.588Z,3.40
2019-05-29T08:49:38.427Z,3.87
2019-05-29T08:52:12.152Z,4.17
2019-05-29T08:54:42.048Z,3.90
2019-05-29T08:57:13.294Z,4.17
2019-05-29T08:59:44.801Z,4.37
2019-05-29T09:02:15.761Z,4.93
2019-05-29T09:04:48.231Z,4.40
2019-05-29T09:07:18.899Z,4.50
2019-05-29T09:09:51.111Z,4.50
2019-05-29T09:12:23.263Z,5.20
2019-05-29T09:14:54.294Z,5.63
2019-05-29T09:17:24.942Z,5.50
2019-05-29T09:19:55.649Z,4.97
2019-05-29T09:22:26.738Z,5.23
2019-05-29T09:24:57.554Z,5.87
2019-05-29T09:27:28.481Z,5.58
2019-05-29T09:29:58.977Z,5.27
2019-05-29T09:32:48.713Z,5.13
2019-05-29T09:35:02.954Z,6.27
2019-05-29T09:37:34.840Z,6.00
2019-05-29T09:40:07.289Z,5.83
2019-05-29T09:42:38.237Z,6.20
2019-05-29T09:45:08.982Z,6.00
2019-05-29T09:47:39.994Z,4.83
2019-05-29T09:50:10.558Z,4.93
2019-05-29T09:52:41.188Z,6.27
2019-05-29T09:55:12.183Z,5.43
2019-05-29T09:57:43.148Z,5.73
2019-05-29T10:00:14.415Z,5.57
2019-05-29T10:02:45.329Z,5.60
2019-05-29T10:05:16.322Z,5.63
2019-05-29T10:07:47.221Z,5.60
2019-05-29T10:10:18.575Z,5.70
2019-05-29T10:12:49.249Z,6.13
2019-05-29T10:15:20.314Z,5.67
2019-05-29T10:17:51.063Z,5.50
2019-05-29T10:20:21.807Z,6.05
2019-05-29T10:22:52.378Z,5.33
2019-05-29T10:25:22.863Z,5.30
2019-05-29T10:27:53.547Z,5.77
2019-05-29T10:30:24.667Z,5.80
2019-05-29T10:32:55.184Z,5.53
2019-05-29T10:35:25.654Z,5.33
2019-05-29T10:37:56.129Z,4.97
2019-05-29T10:40:26.569Z,5.73
2019-05-29T10:42:57.122Z,5.93
2019-05-29T10:45:27.693Z,6.13
2019-05-29T10:47:58.220Z,6.42
2019-05-29T10:50:28.673Z,6.53
2019-05-29T10:52:59.237Z,6.03
2019-05-29T10:55:29.634Z,6.03
2019-05-29T10:58:00.435Z,5.67
2019-05-29T11:00:31.137Z,5.50
2019-05-29T11:03:01.669Z,5.27
2019-05-29T11:05:32.241Z,5.67
2019-05-29T11:08:02.704Z,5.80
2019-05-29T11:10:33.112Z,5.43
2019-05-29T11:13:03.652Z,5.57
2019-05-29T11:15:34.096Z,5.70
2019-05-29T11:18:04.778Z,5.90
2019-05-29T11:20:35.147Z,5.23
2019-05-29T11:23:05.877Z,5.13
2019-05-29T11:25:36.322Z,5.53
2019-05-29T11:28:06.817Z,5.67
2019-05-29T11:30:37.257Z,5.27
2019-05-29T11:33:07.838Z,5.90
2019-05-29T11:35:38.383Z,5.67
2019-05-29T11:38:09.546Z,6.30
2019-05-29T11:40:40.255Z,5.87
2019-05-29T11:43:10.992Z,5.63
2019-05-29T11:45:41.698Z,6.43
2019-05-29T11:48:12.448Z,5.80
2019-05-29T11:50:43.403Z,6.83
2019-05-29T11:53:13.971Z,6.20
2019-05-29T11:55:44.791Z,6.85
2019-05-29T11:58:30.023Z,6.00
2019-05-29T12:00:48.068Z,5.40
2019-05-29T12:03:18.940Z,5.13
2019-05-29T12:05:51.064Z,5.57
2019-05-29T12:08:22.574Z,5.03
2019-05-29T12:10:53.276Z,5.80
2019-05-29T12:13:25.081Z,5.53
2019-05-29T12:15:56.035Z,5.80
2019-05-29T12:18:27.163Z,5.90
2019-05-29T12:20:58.591Z,5.13
2019-05-29T12:23:29.654Z,5.30
2019-05-29T12:26:20.596Z,5.27
2019-05-29T12:28:33.405Z,5.57
2019-05-29T12:31:04.428Z,4.93
2019-05-29T12:33:35.450Z,5.13
2019-05-29T12:36:06.989Z,5.00
2019-05-29T12:38:38.244Z,5.43
2019-05-29T12:41:09.289Z,5.90
2019-05-29T12:43:40.251Z,5.33
2019-05-29T12:46:11.140Z,5.80
2019-05-29T12:48:42.143Z,5.73
2019-05-29T12:51:12.854Z,5.50
2019-05-29T12:53:44.042Z,5.40
2019-05-29T12:56:14.570Z,5.30
2019-05-29T12:58:45.586Z,4.70
2019-05-29T13:01:16.213Z,5.33
2019-05-29T13:03:47.371Z,6.37
2019-05-29T13:06:18.229Z,4.80
2019-05-29T13:08:49.014Z,5.80
2019-05-29T13:11:19.933Z,6.10
2019-05-29T13:13:51.002Z,5.83
2019-05-29T13:16:21.825Z,4.90
2019-05-29T13:18:52.766Z,4.87
2019-05-29T13:21:23.477Z,5.17
2019-05-29T13:23:57.744Z,4.93
2019-05-29T13:26:27.330Z,5.07
2019-05-29T13:28:57.928Z,5.60
2019-05-29T13:31:28.770Z,4.80
2019-05-29T13:33:59.967Z,5.07
2019-05-29T13:36:32.394Z,5.07
2019-05-29T13:39:04.918Z,4.90
2019-05-29T13:41:36.031Z,5.20
2019-05-29T13:44:07.093Z,5.40
2019-05-29T13:46:38.005Z,5.10
2019-05-29T13:49:08.954Z,4.77
2019-05-29T13:51:39.649Z,4.87
2019-05-29T13:54:16.974Z,5.10
2019-05-29T13:56:43.198Z,4.70
2019-05-29T13:59:13.974Z,3.67
2019-05-29T14:01:48.213Z,3.67
2019-05-29T14:04:17.162Z,2.90
2019-05-29T14:06:48.196Z,2.90
2019-05-29T14:09:19.030Z,2.47
2019-05-29T14:11:50.044Z,2.10
2019-05-29T14:14:21.108Z,2.20
2019-05-29T14:16:52.049Z,2.00
2019-05-29T14:19:23.382Z,2.00
2019-05-29T14:21:54.264Z,2.10
2019-05-29T14:24:29.492Z,1.77
2019-05-29T14:26:57.349Z,1.97
2019-05-29T14:29:28.409Z,2.52
2019-05-29T14:32:00.830Z,2.10
2019-05-29T14:34:31.927Z,2.20
2019-05-29T14:37:04.511Z,2.10
2019-05-29T14:39:35.232Z,1.90
2019-05-29T14:42:06.073Z,2.10
2019-05-29T14:44:37.050Z,1.90
2019-05-29T14:47:08.004Z,5.28
2019-05-29T14:49:38.754Z,3.90
2019-05-29T14:52:11.597Z,2.30
2019-05-29T14:54:42.946Z,2.20
2019-05-29T14:57:25.222Z,1.80
2019-05-29T14:59:47.657Z,1.98
2019-05-29T15:02:23.577Z,2.63
2019-05-29T15:04:50.970Z,1.97
2019-05-29T15:07:22.958Z,2.00
2019-05-29T15:09:53.989Z,2.27
2019-05-29T15:12:24.694Z,1.83
2019-05-29T15:14:55.552Z,1.80
2019-05-29T15:17:26.302Z,1.87
2019-05-29T15:19:58.132Z,1.70
2019-05-29T15:22:28.959Z,1.97
2019-05-29T15:25:06.561Z,2.00
2019-05-29T15:27:32.359Z,1.93
2019-05-29T15:30:03.245Z,1.80
2019-05-29T15:32:34.392Z,1.80
2019-05-29T15:35:06.538Z,1.47
2019-05-29T15:37:37.569Z,1.67
2019-05-29T15:40:10.929Z,1.80
2019-05-29T15:42:41.877Z,1.60
2019-05-29T15:45:15.848Z,1.90
2019-05-29T15:47:46.903Z,1.87
2019-05-29T15:50:18.261Z,1.67
2019-05-29T15:52:50.368Z,1.90
2019-05-29T15:55:31.315Z,1.77
2019-05-29T15:57:54.170Z,2.30
2019-05-29T16:00:25.364Z,1.80
2019-05-29T16:02:56.512Z,1.80
2019-05-29T16:05:27.645Z,2.00
2019-05-29T16:07:58.765Z,2.07
2019-05-29T16:10:30.036Z,1.83
2019-05-29T16:13:01.166Z,2.00
2019-05-29T16:15:32.163Z,1.87
2019-05-29T16:18:03.188Z,1.87
2019-05-29T16:20:34.240Z,1.70
2019-05-29T16:23:05.473Z,1.90
2019-05-29T16:25:40.538Z,1.77
2019-05-29T16:28:09.053Z,2.00
2019-05-29T16:30:40.568Z,1.43
2019-05-29T16:33:12.845Z,1.90
2019-05-29T16:35:43.675Z,1.70
2019-05-29T16:38:15.957Z,1.80
2019-05-29T16:40:47.037Z,1.73
2019-05-29T16:43:18.146Z,2.00
2019-05-29T16:45:49.361Z,1.90
2019-05-29T16:48:20.664Z,1.70
2019-05-29T16:50:51.636Z,2.40
2019-05-29T16:53:23.310Z,2.30
2019-05-29T16:55:54.725Z,2.00
2019-05-29T16:58:26.247Z,1.97
2019-05-29T17:00:57.014Z,2.17
2019-05-29T17:03:28.353Z,1.97
2019-05-29T17:05:59.288Z,2.10
2019-05-29T17:08:30.033Z,2.20
2019-05-29T17:11:04.673Z,1.73
2019-05-29T17:13:33.844Z,2.40
2019-05-29T17:16:04.723Z,1.90
2019-05-29T17:18:35.623Z,2.17
2019-05-29T17:21:07.075Z,2.17
2019-05-29T17:23:38.772Z,2.10
2019-05-29T17:26:11.133Z,2.17
2019-05-29T17:28:42.282Z,2.83
2019-05-29T17:31:14.856Z,1.90
2019-05-29T17:33:51.031Z,1.90
2019-05-29T17:36:25.276Z,2.17
2019-05-29T17:38:53.839Z,2.40
2019-05-29T17:41:25.893Z,1.83
2019-05-29T17:43:56.568Z,2.10
2019-05-29T17:46:27.262Z,2.35
2019-05-29T17:48:57.878Z,1.90
2019-05-29T17:51:28.507Z,1.37
2019-05-29T17:53:59.138Z,1.80
2019-05-29T17:56:36.629Z,1.80
2019-05-29T17:59:02.128Z,1.63
2019-05-29T18:01:32.889Z,1.90
2019-05-29T18:04:03.468Z,1.90
2019-05-29T18:06:35.079Z,2.00
2019-05-29T18:09:07.810Z,1.93
2019-05-29T18:11:38.525Z,1.67
2019-05-29T18:14:09.227Z,1.73
2019-05-29T18:16:39.844Z,1.90
2019-05-29T18:19:10.474Z,1.67
2019-05-29T18:21:41.035Z,1.60
2019-05-29T18:24:11.670Z,1.80
2019-05-29T18:26:47.340Z,1.57
2019-05-29T18:29:15.705Z,1.90
2019-05-29T18:31:47.213Z,1.70
2019-05-29T18:34:18.736Z,1.80
2019-05-29T18:36:49.765Z,1.97
2019-05-29T18:39:20.585Z,1.77
2019-05-29T18:41:51.713Z,1.80
2019-05-29T18:44:22.794Z,1.80
2019-05-29T18:46:53.741Z,1.70
2019-05-29T18:49:24.730Z,1.90
2019-05-29T18:51:55.872Z,1.60
2019-05-29T18:54:27.974Z,1.60
2019-05-29T18:57:14.388Z,1.80
2019-05-29T18:59:31.769Z,1.87
2019-05-29T19:02:03.246Z,2.17
2019-05-29T19:04:33.751Z,2.00
2019-05-29T19:07:04.216Z,2.00
2019-05-29T19:09:34.692Z,1.90
2019-05-29T19:12:05.171Z,1.93
2019-05-29T19:14:35.825Z,1.90
2019-05-29T19:17:06.191Z,1.80
2019-05-29T19:19:36.619Z,1.70
2019-05-29T19:22:07.180Z,1.67
2019-05-29T19:24:37.727Z,2.10
2019-05-29T19:27:08.201Z,1.90
2019-05-29T19:29:39.831Z,2.07
2019-05-29T19:32:10.290Z,2.53
2019-05-29T19:34:40.783Z,2.10
2019-05-29T19:37:11.227Z,2.43
2019-05-29T19:39:41.862Z,1.87
2019-05-29T19:42:12.452Z,1.90
2019-05-29T19:44:42.929Z,1.90
2019-05-29T19:47:13.499Z,1.90
2019-05-29T19:49:44.089Z,2.03
2019-05-29T19:52:14.620Z,1.90
2019-05-29T19:54:45.140Z,2.10
2019-05-29T19:57:15.661Z,1.90
2019-05-29T19:59:46.209Z,1.70
2019-05-29T20:02:16.782Z,1.77
2019-05-29T20:04:47.319Z,1.90
2019-05-29T20:07:17.811Z,1.70
2019-05-29T20:09:48.316Z,1.70
2019-05-29T20:12:18.967Z,2.00
2019-05-29T20:14:49.598Z,1.92
2019-05-29T20:17:20.075Z,1.87
2019-05-29T20:19:50.590Z,1.87
2019-05-29T20:22:21.346Z,1.80
2019-05-29T20:24:52.099Z,2.20
2019-05-29T20:27:22.831Z,2.00
2019-05-29T20:29:53.278Z,2.00
2019-05-29T20:32:23.939Z,2.13
2019-05-29T20:34:54.382Z,1.80
2019-05-29T20:37:25.423Z,2.20
2019-05-29T20:39:56.309Z,1.87
2019-05-29T20:42:26.764Z,2.10
2019-05-29T20:44:57.238Z,1.90
2019-05-29T20:47:27.673Z,2.20
2019-05-29T20:49:58.165Z,1.90
2019-05-29T20:52:28.895Z,2.00
2019-05-29T20:54:59.387Z,1.80
2019-05-29T20:57:29.898Z,2.17
2019-05-29T21:00:00.906Z,2.13
2019-05-29T21:02:32.010Z,1.60
2019-05-29T21:05:03.260Z,1.67
2019-05-29T21:07:34.580Z,1.47
2019-05-29T21:10:06.328Z,1.60
2019-05-29T21:12:37.540Z,1.83
2019-05-29T21:15:09.786Z,1.80
2019-05-29T21:17:40.210Z,1.60
2019-05-29T21:20:11.166Z,1.80
2019-05-29T21:22:43.139Z,1.83
2019-05-29T21:25:18.763Z,1.70
2019-05-29T21:27:49.486Z,2.05
2019-05-29T21:30:23.417Z,2.00
2019-05-29T21:32:54.806Z,1.90
2019-05-29T21:35:26.326Z,1.20
2019-05-29T21:37:57.502Z,1.70
2019-05-29T21:40:28.232Z,1.60
2019-05-29T21:42:59.689Z,1.60
2019-05-29T21:45:30.449Z,1.67
2019-05-29T21:48:01.592Z,1.60
2019-05-29T21:50:32.277Z,1.73
2019-05-29T21:53:04.041Z,1.80
2019-05-29T21:55:34.617Z,1.70
2019-05-29T21:58:05.969Z,1.67
2019-05-29T22:00:42.227Z,1.80
2019-05-29T22:03:14.519Z,2.20
2019-05-29T22:05:46.808Z,1.83
2019-05-29T22:08:17.755Z,2.07
2019-05-29T22:10:48.374Z,1.83
2019-05-29T22:13:19.718Z,2.10
2019-05-29T22:15:50.657Z,1.97
2019-05-29T22:18:22.535Z,2.10
2019-05-29T22:20:53.440Z,1.73
2019-05-29T22:23:24.217Z,2.13
2019-05-29T22:25:55.341Z,1.70
2019-05-29T22:28:25.942Z,2.23
2019-05-29T22:30:59.482Z,2.07
2019-05-29T22:33:30.638Z,2.10
2019-05-29T22:36:01.774Z,1.90
2019-05-29T22:38:32.774Z,2.43
2019-05-29T22:41:03.717Z,2.03
2019-05-29T22:43:34.290Z,1.93
2019-05-29T22:46:05.063Z,1.63
2019-05-29T22:48:35.868Z,1.83
2019-05-29T22:51:06.576Z,2.00
2019-05-29T22:53:37.180Z,2.00
2019-05-29T22:56:08.030Z,2.00
2019-05-29T22:58:39.126Z,1.80
2019-05-29T23:01:09.928Z,2.10
2019-05-29T23:03:41.016Z,2.30
2019-05-29T23:06:12.233Z,2.17
2019-05-29T23:08:42.990Z,2.17
2019-05-29T23:11:13.876Z,2.50
2019-05-29T23:13:44.843Z,2.03
2019-05-29T23:16:15.558Z,1.83
2019-05-29T23:18:46.506Z,2.07
2019-05-29T23:21:17.190Z,2.37
2019-05-29T23:23:47.891Z,2.50
2019-05-29T23:26:18.708Z,2.00
2019-05-29T23:28:49.756Z,2.40
2019-05-29T23:31:20.581Z,2.20
2019-05-29T23:33:52.678Z,2.07
2019-05-29T23:36:24.657Z,2.03
2019-05-29T23:38:57.112Z,1.77
2019-05-29T23:41:28.493Z,2.20
2019-05-29T23:43:59.619Z,1.83
2019-05-29T23:46:31.552Z,2.13
2019-05-29T23:49:02.314Z,1.80
2019-05-29T23:51:32.918Z,2.10
2019-05-29T23:54:04.081Z,1.93
2019-05-29T23:56:34.730Z,1.90
2019-05-29T23:59:05.541Z,2.20
